createdAt,value
2019-06-26T00:01:27.407Z,7.50
2019-06-26T00:03:55.919Z,9.40
2019-06-26T00:06:24.305Z,7.62
2019-06-26T00:08:52.798Z,8.40
2019-06-26T00:11:23.066Z,8.30
2019-06-26T00:13:51.455Z,7.80
2019-06-26T00:16:20.124Z,8.38
2019-06-26T00:18:48.541Z,7.95
2019-06-26T00:21:17.012Z,8.08
2019-06-26T00:23:45.413Z,10.03
2019-06-26T00:26:13.811Z,8.38
2019-06-26T00:28:42.226Z,8.70
2019-06-26T00:31:10.801Z,8.15
2019-06-26T00:33:39.197Z,8.20
2019-06-26T00:36:07.595Z,8.80
2019-06-26T00:38:35.980Z,9.50
2019-06-26T00:41:04.380Z,8.78
2019-06-26T00:43:41.989Z,8.75
2019-06-26T00:46:03.138Z,8.80
2019-06-26T00:48:31.545Z,11.15
2019-06-26T00:50:59.934Z,8.90
2019-06-26T00:53:28.381Z,9.35
2019-06-26T00:55:56.879Z,9.80
2019-06-26T00:58:25.335Z,9.13
2019-06-26T01:00:54.095Z,9.50
2019-06-26T01:03:22.481Z,9.45
2019-06-26T01:05:50.981Z,9.28
2019-06-26T01:08:19.386Z,9.03
2019-06-26T01:10:47.929Z,9.30
2019-06-26T01:13:16.350Z,9.23
2019-06-26T01:15:44.821Z,9.80
2019-06-26T01:18:13.287Z,9.80
2019-06-26T01:20:41.942Z,9.60
2019-06-26T01:23:10.405Z,8.78
2019-06-26T01:25:38.803Z,9.15
2019-06-26T01:28:07.262Z,9.38
2019-06-26T01:30:35.810Z,9.63
2019-06-26T01:33:04.276Z,9.83
2019-06-26T01:35:32.702Z,11.28
2019-06-26T01:38:01.132Z,10.15
2019-06-26T01:40:29.522Z,9.83
2019-06-26T01:42:57.987Z,9.63
2019-06-26T01:45:26.338Z,10.00
2019-06-26T01:47:54.734Z,9.65
2019-06-26T01:50:23.128Z,9.68
2019-06-26T01:52:51.699Z,9.60
2019-06-26T01:55:20.092Z,10.53
2019-06-26T01:57:48.653Z,9.23
2019-06-26T02:00:17.407Z,10.43
2019-06-26T02:02:45.847Z,9.90
2019-06-26T02:05:14.679Z,9.70
2019-06-26T02:07:43.065Z,9.98
2019-06-26T02:10:11.898Z,9.90
2019-06-26T02:12:40.522Z,9.03
2019-06-26T02:15:10.049Z,10.45
2019-06-26T02:17:38.445Z,10.72
2019-06-26T02:20:07.893Z,11.68
2019-06-26T02:22:36.310Z,13.15
2019-06-26T02:25:05.743Z,11.28
2019-06-26T02:27:34.223Z,10.43
2019-06-26T02:30:02.615Z,10.32
2019-06-26T02:32:31.025Z,11.70
2019-06-26T02:34:59.441Z,10.53
2019-06-26T02:37:27.836Z,10.45
2019-06-26T02:39:56.246Z,10.80
2019-06-26T02:42:24.648Z,9.83
2019-06-26T02:44:54.531Z,10.28
2019-06-26T02:47:23.186Z,10.38
2019-06-26T02:49:51.555Z,9.85
2019-06-26T02:52:20.015Z,12.55
2019-06-26T02:54:48.469Z,10.45
2019-06-26T02:57:17.002Z,9.98
2019-06-26T02:59:45.395Z,11.25
2019-06-26T03:02:13.803Z,11.15
2019-06-26T03:04:42.217Z,11.10
2019-06-26T03:07:10.635Z,11.05
2019-06-26T03:09:39.129Z,10.45
2019-06-26T03:12:07.536Z,10.90
2019-06-26T03:14:35.932Z,10.10
2019-06-26T03:17:04.525Z,10.85
2019-06-26T03:19:32.882Z,10.50
2019-06-26T03:22:01.295Z,10.55
2019-06-26T03:24:29.707Z,9.65
2019-06-26T03:28:34.776Z,10.65
2019-06-26T03:31:03.181Z,10.00
2019-06-26T03:33:31.611Z,14.50
2019-06-26T03:36:00.019Z,11.15
2019-06-26T03:38:28.540Z,10.63
2019-06-26T03:40:56.951Z,11.03
2019-06-26T03:43:25.370Z,10.50
2019-06-26T03:45:53.801Z,12.15
2019-06-26T03:48:22.315Z,10.10
2019-06-26T03:50:50.786Z,10.78
2019-06-26T03:53:19.210Z,10.60
2019-06-26T03:55:47.619Z,9.88
2019-06-26T03:58:16.013Z,11.05
2019-06-26T04:00:44.799Z,10.93
2019-06-26T04:03:13.203Z,11.35
2019-06-26T04:05:41.632Z,11.00
2019-06-26T04:08:10.043Z,11.30
2019-06-26T04:10:38.609Z,12.47
2019-06-26T04:13:07.235Z,12.03
2019-06-26T04:15:41.993Z,10.55
2019-06-26T04:18:05.882Z,10.98
2019-06-26T04:20:34.307Z,10.70
2019-06-26T04:23:02.736Z,10.72
2019-06-26T04:25:31.215Z,9.85
2019-06-26T04:27:59.618Z,10.28
2019-06-26T04:30:28.117Z,11.53
2019-06-26T04:32:56.606Z,11.20
2019-06-26T04:35:25.040Z,11.65
2019-06-26T04:37:53.458Z,11.93
2019-06-26T04:40:22.131Z,11.25
2019-06-26T04:42:50.600Z,11.33
2019-06-26T04:45:19.241Z,11.40
2019-06-26T04:47:48.669Z,11.45
2019-06-26T04:50:17.723Z,11.83
2019-06-26T04:52:46.180Z,11.78
2019-06-26T04:55:15.536Z,11.10
2019-06-26T04:57:44.037Z,12.03
2019-06-26T05:00:13.694Z,11.78
2019-06-26T05:02:42.110Z,11.57
2019-06-26T05:05:11.074Z,11.03
2019-06-26T05:07:41.004Z,11.93
2019-06-26T05:10:10.859Z,11.85
2019-06-26T05:12:39.302Z,12.07
2019-06-26T05:15:08.950Z,12.98
2019-06-26T05:17:37.475Z,11.80
2019-06-26T05:20:11.093Z,11.85
2019-06-26T05:22:39.606Z,12.13
2019-06-26T05:25:08.458Z,12.63
2019-06-26T05:27:37.042Z,12.65
2019-06-26T05:30:10.129Z,11.45
2019-06-26T05:32:38.740Z,12.37
2019-06-26T05:35:08.278Z,13.08
2019-06-26T05:37:36.777Z,11.70
2019-06-26T05:40:12.594Z,12.15
2019-06-26T05:42:41.098Z,11.97
2019-06-26T05:45:10.342Z,12.80
2019-06-26T05:47:38.934Z,12.85
2019-06-26T05:50:09.726Z,12.23
2019-06-26T05:52:41.990Z,12.82
2019-06-26T05:55:08.954Z,13.40
2019-06-26T05:57:37.446Z,12.82
2019-06-26T06:00:10.845Z,12.63
2019-06-26T06:02:39.338Z,13.15
2019-06-26T06:05:08.962Z,13.58
2019-06-26T06:07:37.451Z,12.80
2019-06-26T06:10:07.005Z,13.22
2019-06-26T06:12:35.411Z,13.30
2019-06-26T06:15:06.108Z,12.98
2019-06-26T06:17:34.508Z,12.00
2019-06-26T06:20:03.505Z,13.25
2019-06-26T06:22:31.899Z,12.93
2019-06-26T06:25:00.330Z,13.13
2019-06-26T06:27:28.738Z,12.68
2019-06-26T06:29:57.225Z,12.65
2019-06-26T06:32:25.636Z,13.03
2019-06-26T06:34:54.069Z,12.15
2019-06-26T06:37:22.506Z,14.13
2019-06-26T06:39:50.929Z,13.70
2019-06-26T06:42:19.414Z,14.18
2019-06-26T06:44:47.878Z,14.80
2019-06-26T06:47:16.300Z,15.35
2019-06-26T06:49:44.738Z,15.32
2019-06-26T06:52:16.495Z,14.73
2019-06-26T06:54:43.307Z,14.85
2019-06-26T06:57:11.719Z,13.60
2019-06-26T06:59:40.151Z,14.20
2019-06-26T07:02:08.562Z,14.58
2019-06-26T07:04:36.995Z,13.58
2019-06-26T07:07:08.677Z,13.98
2019-06-26T07:09:37.088Z,14.35
2019-06-26T07:12:05.512Z,13.65
2019-06-26T07:14:33.928Z,12.80
2019-06-26T07:17:02.332Z,13.35
2019-06-26T07:19:30.741Z,13.18
2019-06-26T07:21:59.152Z,14.47
2019-06-26T07:24:27.571Z,15.28
2019-06-26T07:26:55.996Z,14.28
2019-06-26T07:29:25.551Z,16.55
2019-06-26T07:31:54.039Z,15.85
2019-06-26T07:34:22.628Z,14.23
2019-06-26T07:36:51.054Z,13.75
2019-06-26T07:39:19.526Z,13.62
2019-06-26T07:41:47.952Z,14.47
2019-06-26T07:44:16.423Z,13.48
2019-06-26T07:46:44.838Z,13.75
2019-06-26T07:49:13.266Z,12.15
2019-06-26T07:51:41.731Z,12.90
2019-06-26T07:54:10.116Z,12.40
2019-06-26T07:56:38.552Z,11.70
2019-06-26T07:59:06.967Z,12.03
2019-06-26T08:01:35.433Z,11.85
2019-06-26T08:04:03.906Z,12.13
2019-06-26T08:06:32.349Z,12.05
2019-06-26T08:09:00.822Z,10.85
2019-06-26T08:11:29.247Z,11.80
2019-06-26T08:13:57.679Z,12.05
2019-06-26T08:16:26.088Z,12.28
2019-06-26T08:18:54.500Z,11.30
2019-06-26T08:21:22.903Z,11.25
2019-06-26T08:23:51.314Z,11.15
2019-06-26T08:26:19.751Z,10.48
2019-06-26T08:28:48.169Z,10.98
2019-06-26T08:31:16.582Z,11.28
2019-06-26T08:33:45.074Z,11.90
2019-06-26T08:36:13.558Z,10.80
2019-06-26T08:38:41.964Z,10.08
2019-06-26T08:41:10.385Z,9.95
2019-06-26T08:43:38.845Z,10.60
2019-06-26T08:46:07.316Z,10.45
2019-06-26T08:48:39.957Z,9.58
2019-06-26T08:51:05.829Z,9.80
2019-06-26T08:53:34.409Z,9.53
2019-06-26T08:56:03.082Z,9.53
2019-06-26T08:58:31.568Z,8.68
2019-06-26T09:00:59.966Z,7.30
2019-06-26T09:03:28.371Z,8.00
2019-06-26T09:05:56.781Z,8.08
2019-06-26T09:08:25.318Z,8.50
2019-06-26T09:10:53.865Z,8.48
2019-06-26T09:13:22.273Z,8.40
2019-06-26T09:15:50.679Z,7.70
2019-06-26T09:18:34.347Z,8.10
2019-06-26T09:20:49.247Z,8.40
2019-06-26T09:23:17.662Z,8.08
2019-06-26T09:25:46.073Z,8.15
2019-06-26T09:28:14.483Z,8.55
2019-06-26T09:30:42.866Z,8.83
2019-06-26T09:33:11.297Z,8.48
2019-06-26T09:35:39.704Z,8.58
2019-06-26T09:38:08.106Z,9.13
2019-06-26T09:40:36.556Z,9.00
2019-06-26T09:43:04.989Z,8.05
2019-06-26T09:45:33.474Z,8.25
2019-06-26T09:48:01.969Z,8.73
2019-06-26T09:50:30.380Z,8.55
2019-06-26T09:52:58.774Z,8.73
2019-06-26T09:55:27.176Z,8.93
2019-06-26T09:57:55.579Z,8.20
2019-06-26T10:00:24.440Z,7.62
2019-06-26T10:02:52.853Z,8.15
2019-06-26T10:05:21.427Z,8.43
2019-06-26T10:07:50.017Z,8.50
2019-06-26T10:10:18.795Z,7.60
2019-06-26T10:12:47.193Z,8.35
2019-06-26T10:15:15.739Z,8.03
2019-06-26T10:17:44.193Z,8.25
2019-06-26T10:20:14.105Z,7.62
2019-06-26T10:22:42.510Z,7.33
2019-06-26T10:25:11.828Z,7.87
2019-06-26T10:27:40.668Z,7.78
2019-06-26T10:30:10.035Z,7.17
2019-06-26T10:32:38.525Z,7.42
2019-06-26T10:35:07.077Z,8.10
2019-06-26T10:37:35.551Z,8.55
2019-06-26T10:40:04.702Z,7.67
2019-06-26T10:42:33.113Z,7.70
2019-06-26T10:45:01.662Z,6.75
2019-06-26T10:47:30.113Z,6.22
2019-06-26T10:49:58.494Z,6.53
2019-06-26T10:52:26.914Z,6.90
2019-06-26T10:54:55.329Z,6.40
2019-06-26T10:57:23.793Z,6.75
2019-06-26T10:59:55.501Z,7.33
2019-06-26T11:02:22.446Z,5.90
2019-06-26T11:04:50.836Z,7.20
2019-06-26T11:07:19.260Z,7.12
2019-06-26T11:09:47.686Z,6.95
2019-06-26T11:12:16.128Z,7.25
2019-06-26T11:14:44.514Z,6.95
2019-06-26T11:17:12.927Z,7.25
2019-06-26T11:19:44.323Z,6.75
2019-06-26T11:22:11.521Z,6.30
2019-06-26T11:24:40.038Z,6.85
2019-06-26T11:27:08.534Z,6.65
2019-06-26T11:29:36.904Z,7.30
2019-06-26T11:32:09.148Z,6.90
2019-06-26T11:34:35.528Z,7.17
2019-06-26T11:37:04.704Z,9.23
2019-06-26T11:39:33.318Z,6.62
2019-06-26T11:42:01.784Z,6.40
2019-06-26T11:44:30.331Z,6.55
2019-06-26T11:46:58.878Z,6.40
2019-06-26T11:49:27.296Z,6.90
2019-06-26T11:51:55.743Z,6.50
2019-06-26T11:54:24.158Z,6.67
2019-06-26T11:56:52.586Z,8.18
2019-06-26T11:59:21.034Z,6.55
2019-06-26T12:01:49.492Z,6.80
2019-06-26T12:04:17.991Z,7.28
2019-06-26T12:06:46.507Z,6.50
2019-06-26T12:09:15.064Z,6.35
2019-06-26T12:11:43.439Z,7.92
2019-06-26T12:14:11.930Z,6.80
2019-06-26T12:16:40.369Z,7.67
2019-06-26T12:19:08.799Z,8.28
2019-06-26T12:21:37.207Z,5.87
2019-06-26T12:24:05.622Z,6.10
2019-06-26T12:26:34.017Z,7.55
2019-06-26T12:29:02.456Z,6.70
2019-06-26T12:31:31.171Z,6.78
2019-06-26T12:33:59.627Z,6.15
2019-06-26T12:36:28.010Z,6.53
2019-06-26T12:38:56.520Z,7.30
2019-06-26T12:41:25.070Z,5.95
2019-06-26T12:43:53.467Z,5.92
2019-06-26T12:46:21.882Z,6.25
2019-06-26T12:48:50.283Z,6.37
2019-06-26T12:51:18.687Z,6.58
2019-06-26T12:53:47.106Z,9.40
2019-06-26T12:56:15.575Z,7.92
2019-06-26T12:58:43.988Z,5.58
2019-06-26T13:01:12.396Z,5.03
2019-06-26T13:03:40.807Z,6.62
2019-06-26T13:06:09.238Z,9.33
2019-06-26T13:08:37.678Z,5.42
2019-06-26T13:11:06.153Z,5.90
2019-06-26T13:13:34.698Z,6.87
2019-06-26T13:16:03.126Z,7.35
2019-06-26T13:18:31.601Z,7.30
2019-06-26T13:21:00.212Z,6.58
2019-06-26T13:23:28.624Z,6.22
2019-06-26T13:25:57.030Z,7.03
2019-06-26T13:28:25.436Z,7.70
2019-06-26T13:30:53.941Z,6.30
2019-06-26T13:33:22.420Z,6.05
2019-06-26T13:35:50.883Z,7.25
2019-06-26T13:38:19.358Z,8.80
2019-06-26T13:40:47.776Z,7.20
2019-06-26T13:43:16.183Z,5.78
2019-06-26T13:45:44.683Z,6.60
2019-06-26T13:48:13.151Z,5.83
2019-06-26T13:50:41.567Z,8.73
2019-06-26T13:53:09.978Z,6.45
2019-06-26T13:55:38.469Z,6.40
2019-06-26T13:58:06.961Z,8.03
2019-06-26T14:00:35.369Z,9.70
2019-06-26T14:03:03.839Z,9.83
2019-06-26T14:05:32.393Z,7.53
2019-06-26T14:08:00.793Z,7.95
2019-06-26T14:10:29.223Z,9.10
2019-06-26T14:12:57.797Z,10.80
2019-06-26T14:15:26.256Z,9.00
2019-06-26T14:17:54.662Z,7.95
2019-06-26T14:20:23.187Z,8.13
2019-06-26T14:22:51.655Z,7.45
2019-06-26T14:25:20.057Z,12.03
2019-06-26T14:27:48.538Z,9.60
2019-06-26T14:30:17.395Z,8.33
2019-06-26T14:32:45.838Z,10.10
2019-06-26T14:35:14.252Z,10.00
2019-06-26T14:37:42.693Z,7.95
2019-06-26T14:40:12.237Z,7.85
2019-06-26T14:42:40.785Z,13.50
2019-06-26T14:45:09.630Z,10.75
2019-06-26T14:47:38.085Z,9.55
2019-06-26T14:50:07.526Z,7.30
2019-06-26T14:52:36.013Z,6.70
2019-06-26T14:55:08.272Z,8.08
2019-06-26T14:57:36.760Z,9.98
2019-06-26T15:00:09.101Z,9.68
2019-06-26T15:02:37.522Z,8.85
2019-06-26T15:05:07.599Z,10.82
2019-06-26T15:07:36.041Z,8.08
2019-06-26T15:10:06.996Z,8.75
2019-06-26T15:12:35.496Z,8.05
2019-06-26T15:15:04.392Z,10.78
2019-06-26T15:17:32.872Z,9.58
2019-06-26T15:20:01.294Z,8.30
2019-06-26T15:22:29.696Z,9.73
2019-06-26T15:24:58.111Z,8.38
2019-06-26T15:27:26.537Z,9.15
2019-06-26T15:29:54.932Z,6.78
2019-06-26T15:32:23.395Z,6.03
2019-06-26T15:34:51.868Z,11.50
2019-06-26T15:37:20.316Z,7.45
2019-06-26T15:39:48.707Z,6.47
2019-06-26T15:42:17.173Z,7.05
2019-06-26T15:44:45.640Z,7.95
2019-06-26T15:47:14.044Z,8.73
2019-06-26T15:49:42.532Z,9.30
2019-06-26T15:52:15.410Z,11.43
2019-06-26T15:54:41.165Z,9.05
2019-06-26T15:57:09.663Z,7.95
2019-06-26T15:59:38.077Z,7.90
2019-06-26T16:02:06.495Z,8.63
2019-06-26T16:04:35.292Z,8.58
2019-06-26T16:07:03.967Z,12.60
2019-06-26T16:09:32.409Z,8.00
2019-06-26T16:12:00.865Z,10.48
2019-06-26T16:14:29.240Z,10.98
2019-06-26T16:16:59.358Z,8.18
2019-06-26T16:19:27.772Z,9.18
2019-06-26T16:21:56.193Z,10.85
2019-06-26T16:24:24.654Z,7.10
2019-06-26T16:26:53.026Z,7.37
2019-06-26T16:29:21.431Z,10.35
2019-06-26T16:31:49.856Z,12.03
2019-06-26T16:34:18.400Z,9.83
2019-06-26T16:36:46.878Z,8.33
2019-06-26T16:39:15.390Z,11.35
2019-06-26T16:41:43.922Z,11.10
2019-06-26T16:44:12.321Z,7.87
2019-06-26T16:46:40.818Z,9.30
2019-06-26T16:49:09.178Z,8.45
2019-06-26T16:51:37.612Z,7.85
2019-06-26T16:54:06.005Z,9.58
2019-06-26T16:56:34.400Z,8.93
2019-06-26T16:59:02.879Z,8.28
2019-06-26T17:01:31.295Z,7.90
2019-06-26T17:03:59.699Z,9.30
2019-06-26T17:06:28.169Z,8.85
2019-06-26T17:08:56.637Z,7.95
2019-06-26T17:11:25.296Z,8.00
2019-06-26T17:13:54.006Z,8.20
2019-06-26T17:16:22.480Z,9.55
2019-06-26T17:18:50.893Z,7.75
2019-06-26T17:21:19.351Z,7.62
2019-06-26T17:23:47.862Z,8.70
2019-06-26T17:26:16.301Z,9.83
2019-06-26T17:28:44.694Z,9.98
2019-06-26T17:31:13.112Z,9.73
2019-06-26T17:33:41.563Z,10.72
2019-06-26T17:36:09.935Z,7.97
2019-06-26T17:38:38.435Z,8.33
2019-06-26T17:41:06.870Z,8.15
2019-06-26T17:43:35.359Z,11.30
2019-06-26T17:46:03.838Z,9.20
2019-06-26T17:48:32.421Z,10.90
2019-06-26T17:51:00.914Z,11.90
2019-06-26T17:53:29.350Z,9.93
2019-06-26T17:55:57.800Z,10.10
2019-06-26T17:58:26.279Z,11.05
2019-06-26T18:00:54.713Z,9.45
2019-06-26T18:03:23.178Z,10.00
2019-06-26T18:05:51.569Z,11.73
2019-06-26T18:08:20.066Z,9.95
2019-06-26T18:10:48.537Z,8.55
2019-06-26T18:13:16.982Z,9.48
2019-06-26T18:15:45.379Z,10.40
2019-06-26T18:18:13.855Z,10.18
2019-06-26T18:20:42.389Z,8.18
2019-06-26T18:23:10.848Z,11.88
2019-06-26T18:25:39.266Z,9.83
2019-06-26T18:28:07.716Z,8.73
2019-06-26T18:30:36.275Z,11.33
2019-06-26T18:33:04.737Z,10.90
2019-06-26T18:35:33.131Z,8.53
2019-06-26T18:38:01.840Z,10.15
2019-06-26T18:40:30.334Z,10.05
2019-06-26T18:42:58.760Z,9.78
2019-06-26T18:45:27.253Z,9.35
2019-06-26T18:47:55.749Z,10.05
2019-06-26T18:50:24.157Z,12.45
2019-06-26T18:52:52.624Z,11.75
2019-06-26T18:55:21.060Z,13.45
2019-06-26T18:57:49.552Z,9.98
2019-06-26T19:00:18.732Z,9.83
2019-06-26T19:02:47.342Z,10.53
2019-06-26T19:05:15.982Z,10.63
2019-06-26T19:07:44.389Z,10.70
2019-06-26T19:10:14.066Z,10.18
2019-06-26T19:12:42.612Z,10.00
2019-06-26T19:15:11.612Z,11.93
2019-06-26T19:17:42.454Z,12.50
2019-06-26T19:20:10.913Z,9.80
2019-06-26T19:22:39.443Z,9.68
2019-06-26T19:25:08.319Z,12.25
2019-06-26T19:27:36.895Z,10.05
2019-06-26T19:30:08.899Z,9.90
2019-06-26T19:32:37.711Z,9.78
2019-06-26T19:35:18.111Z,10.18
2019-06-26T19:37:37.201Z,13.03
2019-06-26T19:40:09.208Z,13.95
2019-06-26T19:42:37.830Z,10.68
2019-06-26T19:45:08.579Z,9.73
2019-06-26T19:47:36.994Z,10.90
2019-06-26T19:50:09.365Z,10.00
2019-06-26T19:52:37.894Z,13.50
2019-06-26T19:55:06.476Z,10.00
2019-06-26T19:57:34.905Z,10.50
2019-06-26T20:03:37.985Z,10.10
2019-06-26T20:06:06.516Z,10.95
2019-06-26T20:08:34.929Z,10.90
2019-06-26T20:11:03.363Z,10.38
2019-06-26T20:13:32.031Z,10.55
2019-06-26T20:16:00.487Z,11.48
2019-06-26T20:18:28.929Z,10.88
2019-06-26T20:20:57.414Z,13.43
2019-06-26T20:23:25.839Z,10.55
2019-06-26T20:25:54.261Z,10.78
2019-06-26T20:28:22.827Z,13.15
2019-06-26T20:30:51.301Z,11.60
2019-06-26T20:33:19.963Z,11.70
2019-06-26T20:35:48.425Z,11.63
2019-06-26T20:38:16.835Z,11.63
2019-06-26T20:40:46.208Z,11.40
2019-06-26T20:43:14.785Z,11.60
2019-06-26T20:45:43.230Z,11.05
2019-06-26T20:48:11.642Z,11.48
2019-06-26T20:50:40.079Z,11.65
2019-06-26T20:53:08.503Z,12.73
2019-06-26T20:55:36.962Z,11.40
2019-06-26T20:58:05.364Z,11.15
2019-06-26T21:00:33.794Z,12.28
2019-06-26T21:03:02.483Z,12.65
2019-06-26T21:05:30.987Z,12.75
2019-06-26T21:07:59.453Z,12.30
2019-06-26T21:10:27.995Z,12.47
2019-06-26T21:12:56.481Z,12.63
2019-06-26T21:15:24.899Z,12.30
2019-06-26T21:17:53.332Z,12.88
2019-06-26T21:20:21.759Z,13.18
2019-06-26T21:22:50.179Z,12.80
2019-06-26T21:25:19.860Z,12.70
2019-06-26T21:27:48.514Z,13.70
2019-06-26T21:30:17.260Z,13.72
2019-06-26T21:32:45.673Z,14.03
2019-06-26T21:35:14.085Z,12.95
2019-06-26T21:37:44.060Z,12.23
2019-06-26T21:40:12.772Z,13.20
2019-06-26T21:42:41.330Z,13.30
2019-06-26T21:45:10.105Z,13.43
2019-06-26T21:47:38.602Z,13.48
2019-06-26T21:50:07.362Z,13.80
2019-06-26T21:52:37.361Z,13.10
2019-06-26T21:55:06.947Z,13.13
2019-06-26T21:57:35.505Z,13.50
2019-06-26T22:00:08.610Z,12.75
2019-06-26T22:02:37.115Z,12.43
2019-06-26T22:05:08.235Z,13.43
2019-06-26T22:07:38.456Z,13.25
2019-06-26T22:10:07.739Z,13.50
2019-06-26T22:12:36.233Z,14.00
2019-06-26T22:15:05.592Z,12.85
2019-06-26T22:17:34.028Z,13.60
2019-06-26T22:20:02.522Z,13.30
2019-06-26T22:22:31.042Z,12.15
2019-06-26T22:24:59.536Z,12.73
2019-06-26T22:27:28.012Z,12.68
2019-06-26T22:29:58.131Z,13.00
2019-06-26T22:32:28.723Z,12.95
2019-06-26T22:34:57.461Z,13.22
2019-06-26T22:37:25.879Z,13.43
2019-06-26T22:39:56.569Z,13.35
2019-06-26T22:42:25.071Z,12.82
2019-06-26T22:44:53.530Z,13.00
2019-06-26T22:47:22.696Z,14.50
2019-06-26T22:49:52.813Z,14.18
2019-06-26T22:52:21.255Z,13.58
2019-06-26T22:54:51.829Z,13.45
2019-06-26T22:57:20.415Z,13.68
2019-06-26T22:59:50.511Z,13.90
2019-06-26T23:02:19.885Z,13.50
2019-06-26T23:04:48.595Z,14.38
2019-06-26T23:07:17.061Z,14.23
2019-06-26T23:09:45.594Z,13.90
2019-06-26T23:12:14.080Z,13.93
2019-06-26T23:14:42.678Z,13.20
2019-06-26T23:17:11.402Z,13.60
2019-06-26T23:19:39.827Z,14.23
2019-06-26T23:22:08.268Z,13.98
2019-06-26T23:24:36.682Z,14.20
2019-06-26T23:27:05.372Z,14.87
2019-06-26T23:29:33.950Z,13.43
2019-06-26T23:32:03.516Z,15.05
2019-06-26T23:34:32.037Z,13.83
2019-06-26T23:37:00.464Z,15.18
2019-06-26T23:39:28.911Z,13.53
2019-06-26T23:41:57.341Z,15.18
2019-06-26T23:44:25.824Z,14.35
2019-06-26T23:46:54.230Z,14.65
2019-06-26T23:49:22.639Z,15.18
2019-06-26T23:51:51.063Z,14.53
2019-06-26T23:54:19.484Z,14.07
2019-06-26T23:56:47.910Z,14.47
2019-06-26T23:59:16.416Z,14.53
